Time;durP1;ratioP1;P1;durP2;ratioP2;P2;SDS_P1;SDS_P2;PMS_P1;PMS_P2;Temp;Humidity;BMP_temperature;BMP_pressure;BME280_temperature;BME280_humidity;BME280_pressure;Samples;Min_cycle;Max_cycle;Signal;HPM_P1;HPM_P2
2021/03/20 00:00:37;;;;;;;17.25;13.63;;;0.90;99.90;;;;;;4956619;28;20205;-85
2021/03/20 00:03:05;;;;;;;14.40;11.45;;;0.90;99.90;;;;;;4956470;28;20216;-85
2021/03/20 00:05:31;;;;;;;15.95;11.73;;;0.90;99.90;;;;;;4956290;29;20214;-85
2021/03/20 00:07:58;;;;;;;14.27;11.38;;;0.90;99.90;;;;;;4955768;28;20235;-84
2021/03/20 00:10:25;;;;;;;16.42;10.70;;;0.90;99.90;;;;;;4974241;28;20230;-85
2021/03/20 00:12:53;;;;;;;15.77;10.98;;;0.90;99.90;;;;;;4990372;28;20634;-85
2021/03/20 00:15:22;;;;;;;13.23;10.32;;;0.90;99.90;;;;;;4976067;28;20231;-85
2021/03/20 00:17:49;;;;;;;14.80;10.57;;;0.80;99.90;;;;;;4963914;28;20272;-85
2021/03/20 00:20:19;;;;;;;14.75;11.52;;;0.90;99.90;;;;;;4977849;28;20220;-84
2021/03/20 00:22:45;;;;;;;15.55;11.50;;;0.90;99.90;;;;;;4977482;28;20576;-85
2021/03/20 00:25:12;;;;;;;14.35;10.95;;;0.90;99.90;;;;;;4963329;28;20216;-84
2021/03/20 00:27:38;;;;;;;12.50;10.65;;;0.80;99.90;;;;;;4987827;28;20204;-85
2021/03/20 00:30:06;;;;;;;12.70;9.98;;;0.90;99.90;;;;;;4979932;28;20231;-85
2021/03/20 00:32:32;;;;;;;13.27;10.80;;;0.80;99.90;;;;;;4975721;28;20225;-84
2021/03/20 00:34:59;;;;;;;12.05;10.45;;;0.90;99.90;;;;;;4975817;28;20701;-85
2021/03/20 00:37:26;;;;;;;11.77;10.40;;;0.90;99.90;;;;;;4970873;28;20288;-84
2021/03/20 00:39:52;;;;;;;13.90;10.93;;;0.80;99.90;;;;;;4960097;28;20197;-85
2021/03/20 00:42:18;;;;;;;14.55;10.32;;;0.80;99.90;;;;;;4994744;28;20211;-84
2021/03/20 00:44:45;;;;;;;16.77;8.95;;;0.70;99.90;;;;;;4996897;28;20211;-85
2021/03/20 00:47:11;;;;;;;12.63;10.10;;;0.60;99.90;;;;;;4991588;28;20849;-86
2021/03/20 00:49:37;;;;;;;12.93;10.88;;;0.60;99.90;;;;;;4965127;28;20229;-85
2021/03/20 00:52:04;;;;;;;16.20;11.30;;;0.60;99.90;;;;;;4973362;29;20221;-84
2021/03/20 00:54:31;;;;;;;12.85;10.68;;;0.60;99.90;;;;;;4966844;28;20237;-85
2021/03/20 00:56:57;;;;;;;14.52;11.00;;;0.60;99.90;;;;;;4969335;28;20193;-83
2021/03/20 00:59:23;;;;;;;15.25;12.10;;;0.70;99.90;;;;;;4976306;28;20208;-84
2021/03/20 01:01:49;;;;;;;14.27;10.80;;;0.80;99.90;;;;;;4975176;28;20255;-83
2021/03/20 01:04:16;;;;;;;15.02;11.57;;;0.90;99.90;;;;;;4981177;28;20584;-83
2021/03/20 01:06:42;;;;;;;12.07;9.75;;;1.00;99.90;;;;;;4982442;28;20202;-83
2021/03/20 01:09:08;;;;;;;12.52;10.98;;;1.00;99.90;;;;;;4984123;28;20209;-83
2021/03/20 01:11:35;;;;;;;15.43;11.23;;;1.00;99.90;;;;;;4970261;28;20338;-83
2021/03/20 01:14:02;;;;;;;12.45;10.40;;;1.10;99.90;;;;;;4979616;28;20693;-83
2021/03/20 01:16:29;;;;;;;13.05;9.48;;;1.10;99.90;;;;;;4978983;28;20228;-83
2021/03/20 01:18:56;;;;;;;14.20;8.77;;;1.20;99.90;;;;;;4990338;28;20224;-84
2021/03/20 01:21:23;;;;;;;13.32;9.68;;;1.20;99.90;;;;;;4983949;28;20212;-84
2021/03/20 01:23:50;;;;;;;14.13;10.02;;;1.30;99.90;;;;;;4997422;28;20220;-84
2021/03/20 01:26:16;;;;;;;12.68;10.18;;;1.30;99.90;;;;;;5003637;28;20234;-84
2021/03/20 01:28:43;;;;;;;11.00;9.23;;;1.30;99.90;;;;;;4987044;28;20205;-83
2021/03/20 01:31:12;;;;;;;12.82;10.43;;;1.40;99.90;;;;;;4981996;28;20204;-83
2021/03/20 01:33:38;;;;;;;10.85;9.38;;;1.60;99.90;;;;;;4982875;28;20253;-84
2021/03/20 01:36:05;;;;;;;14.30;9.23;;;1.60;99.90;;;;;;4976131;29;20190;-83
2021/03/20 01:38:33;;;;;;;11.43;9.55;;;1.60;99.90;;;;;;4993483;28;20399;-84
2021/03/20 01:41:02;;;;;;;13.50;11.13;;;1.70;99.90;;;;;;4983264;28;20594;-83
2021/03/20 01:43:31;;;;;;;12.65;9.40;;;1.80;99.90;;;;;;4983950;28;20201;-84
2021/03/20 01:46:31;;;;;;;11.02;8.38;;;1.90;99.90;;;;;;4991552;28;20204;-83
2021/03/20 01:48:58;;;;;;;10.82;9.40;;;1.90;99.90;;;;;;4973301;29;20234;-84
2021/03/20 01:51:25;;;;;;;12.68;8.93;;;2.00;99.90;;;;;;4963266;28;20206;-84
2021/03/20 01:53:55;;;;;;;11.52;8.82;;;2.10;99.90;;;;;;4962628;28;20296;-84
2021/03/20 01:56:28;;;;;;;12.10;9.05;;;2.10;99.90;;;;;;4972678;28;20581;-84
2021/03/20 01:58:55;;;;;;;12.52;9.75;;;2.20;99.80;;;;;;4981241;28;20237;-84
2021/03/20 02:01:24;;;;;;;9.52;8.23;;;2.20;99.70;;;;;;4980595;28;20213;-84
2021/03/20 02:03:52;;;;;;;10.10;8.85;;;2.20;99.50;;;;;;4981365;28;20205;-84
2021/03/20 02:06:19;;;;;;;11.85;8.70;;;2.20;99.40;;;;;;4967713;28;20202;-83
2021/03/20 02:08:48;;;;;;;10.88;9.75;;;2.20;99.50;;;;;;4963356;29;20592;-84
2021/03/20 02:11:21;;;;;;;11.63;9.48;;;2.20;99.60;;;;;;4969162;29;20206;-84
2021/03/20 02:13:52;;;;;;;9.57;8.23;;;2.20;99.40;;;;;;4960668;28;20205;-83
2021/03/20 02:16:25;;;;;;;11.38;8.95;;;2.30;99.30;;;;;;4957981;28;20209;-84
2021/03/20 02:19:01;;;;;;;10.07;8.13;;;2.30;99.20;;;;;;4958491;29;20227;-83
2021/03/20 02:21:33;;;;;;;10.45;9.23;;;2.30;99.10;;;;;;4972420;28;20208;-83
2021/03/20 02:24:50;;;;;;;12.32;9.05;;;2.40;99.00;;;;;;4977626;28;20685;-84
2021/03/20 02:28:01;;;;;;;11.98;9.02;;;2.30;98.90;;;;;;4957745;28;20293;-84
2021/03/20 02:31:09;;;;;;;9.93;8.45;;;2.30;98.90;;;;;;4957852;29;20222;-83
2021/03/20 02:33:43;;;;;;;9.30;8.40;;;2.40;98.90;;;;;;4957821;29;20213;-83
2021/03/20 02:36:20;;;;;;;13.32;9.48;;;2.40;98.90;;;;;;4957826;28;20583;-83
2021/03/20 02:38:51;;;;;;;10.77;8.32;;;2.40;98.90;;;;;;4958332;29;20258;-83
2021/03/20 02:41:28;;;;;;;12.60;8.48;;;2.40;98.90;;;;;;4957980;29;20216;-83
2021/03/20 02:44:04;;;;;;;8.85;7.45;;;2.40;98.80;;;;;;4972957;28;20269;-83
2021/03/20 02:46:36;;;;;;;12.05;9.30;;;2.40;98.70;;;;;;4975800;28;20196;-83
2021/03/20 02:49:32;;;;;;;9.48;8.43;;;2.40;98.70;;;;;;4988971;28;20355;-84
2021/03/20 02:52:01;;;;;;;10.73;8.05;;;2.40;98.70;;;;;;4981008;28;20204;-83
2021/03/20 02:54:32;;;;;;;11.68;8.27;;;2.40;98.50;;;;;;4995944;28;20216;-83
2021/03/20 02:57:04;;;;;;;11.77;9.45;;;2.40;98.40;;;;;;4966027;29;20209;-84
2021/03/20 02:59:33;;;;;;;10.32;8.40;;;2.40;98.40;;;;;;4978538;28;20218;-83
2021/03/20 03:02:03;;;;;;;8.98;7.32;;;2.40;98.40;;;;;;4979839;28;20202;-83
2021/03/20 03:04:34;;;;;;;9.00;8.05;;;2.40;98.50;;;;;;4977445;28;20194;-83
2021/03/20 03:07:04;;;;;;;9.52;8.48;;;2.40;98.50;;;;;;4998299;28;20755;-84
2021/03/20 03:09:36;;;;;;;9.07;8.10;;;2.40;98.70;;;;;;4989136;28;20217;-83
2021/03/20 03:12:06;;;;;;;11.80;8.38;;;2.40;98.70;;;;;;4998964;28;20212;-83
2021/03/20 03:14:38;;;;;;;11.52;8.85;;;2.40;98.70;;;;;;4988761;28;20277;-83
2021/03/20 03:17:06;;;;;;;10.43;8.32;;;2.40;99.10;;;;;;4995967;28;20215;-83
2021/03/20 03:19:40;;;;;;;10.02;8.05;;;2.40;99.00;;;;;;4979728;28;20209;-84
2021/03/20 03:22:11;;;;;;;9.90;8.90;;;2.40;99.10;;;;;;4961551;29;20216;-84
2021/03/20 03:24:40;;;;;;;11.10;7.85;;;2.40;99.20;;;;;;4962393;28;20210;-84
2021/03/20 03:27:10;;;;;;;8.80;7.75;;;2.40;99.30;;;;;;4977227;28;20204;-84
2021/03/20 03:29:37;;;;;;;8.50;7.60;;;2.40;99.50;;;;;;4986280;28;20218;-84
2021/03/20 03:32:14;;;;;;;11.23;8.65;;;2.40;99.50;;;;;;4992985;28;20207;-84
2021/03/20 03:34:48;;;;;;;10.57;9.55;;;2.40;99.70;;;;;;4974523;28;20200;-84
2021/03/20 03:37:19;;;;;;;9.65;8.57;;;2.30;99.80;;;;;;4968583;29;20216;-84
2021/03/20 03:39:50;;;;;;;10.32;7.80;;;2.30;99.90;;;;;;4975946;29;20207;-84
2021/03/20 03:42:19;;;;;;;12.23;9.70;;;2.30;99.90;;;;;;4973548;29;20679;-84
2021/03/20 03:44:47;;;;;;;9.55;8.55;;;2.30;99.90;;;;;;4959140;28;20214;-84
2021/03/20 03:47:17;;;;;;;9.40;7.85;;;2.30;99.90;;;;;;4975164;28;20225;-84
2021/03/20 03:49:44;;;;;;;10.43;9.20;;;2.30;99.90;;;;;;4975648;28;20256;-84
2021/03/20 03:52:12;;;;;;;11.95;9.40;;;2.30;99.90;;;;;;4975195;28;20205;-84
2021/03/20 03:54:39;;;;;;;9.77;8.65;;;2.30;99.90;;;;;;4974549;28;20693;-84
2021/03/20 03:57:36;;;;;;;9.98;9.00;;;2.30;99.90;;;;;;4955883;28;20209;-84
2021/03/20 04:00:14;;;;;;;9.82;7.90;;;2.30;99.90;;;;;;4956349;29;20209;-84
2021/03/20 04:03:13;;;;;;;10.75;8.40;;;2.30;99.90;;;;;;4956725;29;20213;-84
2021/03/20 04:05:48;;;;;;;9.40;8.35;;;2.30;99.90;;;;;;4964528;28;20236;-85
2021/03/20 04:08:21;;;;;;;9.77;8.77;;;2.30;99.90;;;;;;4986013;23;20602;-85
2021/03/20 04:10:52;;;;;;;10.15;8.57;;;2.20;99.90;;;;;;4976010;28;20272;-85
2021/03/20 04:13:25;;;;;;;11.50;9.35;;;2.20;99.90;;;;;;4982563;28;20196;-85
2021/03/20 04:16:01;;;;;;;11.63;9.50;;;2.20;99.90;;;;;;4976430;28;20209;-84
2021/03/20 04:18:35;;;;;;;9.65;8.40;;;2.10;99.90;;;;;;4959021;28;20222;-85
2021/03/20 04:21:29;;;;;;;10.77;8.77;;;2.20;99.90;;;;;;4958193;29;20577;-84
2021/03/20 04:24:15;;;;;;;11.70;9.93;;;2.10;99.90;;;;;;4962592;29;20206;-85
2021/03/20 04:26:48;;;;;;;12.13;9.85;;;2.00;99.90;;;;;;4959861;28;20215;-85
2021/03/20 04:29:28;;;;;;;10.02;8.80;;;1.90;99.90;;;;;;4976020;28;20686;-85
2021/03/20 04:32:07;;;;;;;11.23;9.38;;;1.90;99.90;;;;;;4978333;28;20292;-85
2021/03/20 04:34:46;;;;;;;9.68;7.38;;;1.90;99.90;;;;;;4978500;28;20681;-85
2021/03/20 04:58:16;;;;;;;9.98;8.40;;;1.40;99.90;;;;;;4817571;29;20227;-86
2021/03/20 05:09:13;;;;;;;11.65;10.48;;;1.10;99.90;;;;;;4890669;29;20569;-86
2021/03/20 05:12:16;;;;;;;12.38;8.85;;;1.10;99.90;;;;;;4872720;29;20212;-86
2021/03/20 05:14:52;;;;;;;9.60;8.50;;;1.10;99.90;;;;;;4949373;29;20221;-85
2021/03/20 05:17:32;;;;;;;11.45;9.63;;;1.10;99.90;;;;;;4978686;28;20200;-84
2021/03/20 05:28:50;;;;;;;10.68;9.05;;;1.10;99.90;;;;;;4973202;28;20232;-86
2021/03/20 05:32:01;;;;;;;15.50;10.20;;;1.10;99.90;;;;;;4965188;28;20268;-86
2021/03/20 05:34:50;;;;;;;11.55;9.35;;;1.10;99.90;;;;;;4976153;28;20215;-86
2021/03/20 05:44:00;;;;;;;11.77;10.27;;;1.20;99.90;;;;;;4931621;29;20200;-85
2021/03/20 05:47:08;;;;;;;10.43;7.95;;;1.30;99.90;;;;;;4972684;28;20257;-85
2021/03/20 05:50:27;;;;;;;12.80;10.07;;;1.20;99.90;;;;;;4997005;28;20260;-85
2021/03/20 05:53:54;;;;;;;16.52;9.90;;;1.10;99.90;;;;;;4983145;28;20729;-85
2021/03/20 05:59:49;;;;;;;11.40;8.95;;;1.00;99.90;;;;;;4899607;29;20658;-86
2021/03/20 06:03:01;;;;;;;11.50;9.43;;;1.10;99.90;;;;;;4958273;29;20241;-86
2021/03/20 06:06:03;;;;;;;9.88;8.80;;;1.10;99.90;;;;;;4960099;28;20295;-86
2021/03/20 06:12:02;;;;;;;12.35;9.38;;;1.40;99.90;;;;;;4932815;28;20236;-86
2021/03/20 06:15:08;;;;;;;11.02;9.82;;;1.50;99.90;;;;;;4982198;28;20208;-85
2021/03/20 06:18:13;;;;;;;10.07;9.02;;;1.70;99.90;;;;;;4964361;29;20312;-85
2021/03/20 06:24:31;;;;;;;10.85;9.30;;;2.00;99.90;;;;;;4966099;28;20208;-86
2021/03/20 06:30:49;;;;;;;8.73;7.53;;;2.30;99.90;;;;;;4977156;28;20225;-86
2021/03/20 06:34:05;;;;;;;16.85;9.52;;;2.50;99.90;;;;;;4873029;29;20287;-85
2021/03/20 06:37:08;;;;;;;8.43;7.63;;;2.70;99.60;;;;;;4921769;29;20229;-86
2021/03/20 06:43:47;;;;;;;7.32;6.57;;;2.80;97.90;;;;;;4897722;29;20300;-85
2021/03/20 06:53:25;;;;;;;7.20;6.50;;;3.10;96.20;;;;;;4970710;28;20191;-86
2021/03/20 06:56:12;;;;;;;6.95;6.22;;;3.20;95.30;;;;;;4978325;28;20215;-86
2021/03/20 07:02:03;;;;;;;7.82;5.47;;;3.40;93.30;;;;;;4961754;28;20205;-86
2021/03/20 07:08:15;;;;;;;5.78;5.18;;;3.40;92.00;;;;;;4953549;29;20872;-86
2021/03/20 07:10:57;;;;;;;5.70;5.30;;;3.50;92.00;;;;;;4958586;29;20227;-86
2021/03/20 07:13:29;;;;;;;8.65;5.07;;;3.70;91.60;;;;;;4972246;28;20463;-86
2021/03/20 07:16:34;;;;;;;5.25;4.75;;;3.70;91.40;;;;;;4978625;28;20277;-86
2021/03/20 07:19:19;;;;;;;6.15;5.28;;;3.80;90.70;;;;;;4979934;28;20299;-85
2021/03/20 07:22:11;;;;;;;5.75;5.22;;;4.00;90.30;;;;;;4975299;28;20575;-86
2021/03/20 07:24:46;;;;;;;5.47;4.50;;;4.10;89.50;;;;;;4986463;28;20196;-85
2021/03/20 07:30:50;;;;;;;5.45;4.85;;;4.30;88.10;;;;;;4947063;28;20241;-86
2021/03/20 07:33:41;;;;;;;5.83;4.60;;;4.60;86.20;;;;;;4960054;28;20212;-86
2021/03/20 07:39:26;;;;;;;6.40;5.00;;;4.90;83.60;;;;;;4957919;29;20537;-87
2021/03/20 07:42:02;;;;;;;7.13;6.43;;;4.80;83.10;;;;;;4965789;28;20947;-86
2021/03/20 07:52:04;;;;;;;4.40;3.90;;;6.10;78.80;;;;;;4894000;28;20470;-87
2021/03/20 07:54:54;;;;;;;4.60;4.20;;;6.50;77.60;;;;;;4973273;28;20546;-87
2021/03/20 08:11:46;;;;;;;4.57;4.17;;;6.80;70.80;;;;;;4948856;29;20477;-84
2021/03/20 08:15:23;;;;;;;4.80;4.30;;;8.20;66.10;;;;;;4963680;28;20475;-85
2021/03/20 08:18:47;;;;;;;;;;;;;;;;;;;;;
2021/03/20 08:25:01;;;;;;;4.30;3.90;;;9.10;58.10;;;;;;4916574;28;20458;-86
2021/03/20 08:27:50;;;;;;;4.47;3.47;;;8.90;57.80;;;;;;4977507;28;20503;-85
2021/03/20 08:30:47;;;;;;;8.03;4.20;;;8.40;58.70;;;;;;4973696;28;21031;-86
2021/03/20 08:34:02;;;;;;;4.73;4.27;;;7.70;58.90;;;;;;4980648;28;20428;-86
2021/03/20 08:37:30;;;;;;;4.43;3.93;;;7.20;59.20;;;;;;4988068;28;20440;-86
2021/03/20 08:40:38;;;;;;;4.40;3.20;;;6.50;57.90;;;;;;4974687;28;20498;-85
2021/03/20 08:43:34;;;;;;;3.13;2.87;;;5.60;59.00;;;;;;4976221;28;20587;-87
2021/03/20 08:46:24;;;;;;;3.37;3.03;;;5.10;60.10;;;;;;4997397;28;20440;-85
2021/03/20 08:49:01;;;;;;;3.07;2.77;;;5.60;61.40;;;;;;5016805;23;20481;-85
2021/03/20 08:51:38;;;;;;;3.23;2.93;;;6.70;59.80;;;;;;4978886;28;20480;-84
2021/03/20 08:54:17;;;;;;;3.60;3.03;;;6.40;57.20;;;;;;4966931;28;20425;-85
2021/03/20 08:57:10;;;;;;;4.00;3.50;;;5.80;56.20;;;;;;4968131;29;20421;-86
2021/03/20 08:59:44;;;;;;;2.87;2.67;;;5.80;57.80;;;;;;4941343;29;20433;-84
2021/03/20 09:02:30;;;;;;;3.97;3.63;;;6.10;57.90;;;;;;4953638;28;20454;-82
2021/03/20 09:05:02;;;;;;;5.53;4.00;;;5.80;58.30;;;;;;4953266;28;20439;-84
2021/03/20 09:07:41;;;;;;;3.50;3.07;;;6.40;59.80;;;;;;5011435;23;20513;-83
2021/03/20 09:10:28;;;;;;;3.03;2.73;;;7.50;57.00;;;;;;4957495;29;20475;-84
2021/03/20 09:13:24;;;;;;;3.23;2.60;;;8.80;52.20;;;;;;4966023;29;20457;-85
2021/03/20 09:16:01;;;;;;;3.53;2.80;;;9.20;48.70;;;;;;4972106;29;20449;-84
2021/03/20 09:18:39;;;;;;;3.30;3.00;;;10.60;47.00;;;;;;4969051;28;20465;-85
2021/03/20 09:21:20;;;;;;;3.57;2.70;;;12.40;43.60;;;;;;4956743;29;20509;-85
2021/03/20 09:24:05;;;;;;;2.87;2.67;;;13.50;41.50;;;;;;4968108;28;20444;-85
2021/03/20 09:26:44;;;;;;;2.53;2.33;;;15.60;37.90;;;;;;4963132;29;20444;-85
2021/03/20 09:29:27;;;;;;;2.93;2.73;;;17.40;34.30;;;;;;4948515;29;20487;-86
2021/03/20 09:32:39;;;;;;;3.60;3.30;;;17.30;32.20;;;;;;4961220;29;20469;-85
2021/03/20 09:35:39;;;;;;;4.43;3.67;;;15.10;33.10;;;;;;4953071;29;20429;-86
2021/03/20 09:38:12;;;;;;;3.23;3.00;;;15.50;34.90;;;;;;4953707;29;20489;-85
2021/03/20 09:41:35;;;;;;;3.27;3.07;;;15.50;34.40;;;;;;4949100;29;20546;-85
2021/03/20 09:44:42;;;;;;;2.83;2.60;;;16.10;34.50;;;;;;4904689;29;20446;-85
2021/03/20 09:47:45;;;;;;;;;;;;;;;;;;;;;
2021/03/20 09:50:38;;;;;;;3.50;3.20;;;17.70;32.20;;;;;;4951647;29;20527;-86
2021/03/20 09:53:45;;;;;;;3.23;2.97;;;16.50;33.00;;;;;;4948992;29;20438;-85
2021/03/20 09:56:41;;;;;;;2.43;2.23;;;16.10;31.10;;;;;;4942220;29;20440;-84
2021/03/20 09:59:10;;;;;;;2.33;1.97;;;14.90;30.00;;;;;;4938996;29;20475;-85
2021/03/20 10:01:52;;;;;;;2.80;2.23;;;14.80;31.50;;;;;;4945982;29;20475;-85
2021/03/20 10:04:51;;;;;;;2.43;2.20;;;16.00;31.10;;;;;;4949748;29;20440;-85
2021/03/20 10:07:40;;;;;;;3.27;2.63;;;17.20;30.10;;;;;;4952824;29;20436;-84
2021/03/20 10:11:00;;;;;;;3.20;2.50;;;20.00;28.70;;;;;;4946157;29;20448;-84
2021/03/20 10:13:50;;;;;;;2.80;2.60;;;20.70;26.70;;;;;;4931013;29;20983;-86
2021/03/20 10:20:10;;;;;;;3.90;3.10;;;22.50;25.50;;;;;;5018694;23;20530;-84
2021/03/20 10:26:42;;;;;;;3.53;3.00;;;20.90;25.00;;;;;;4972800;28;20439;-85
2021/03/20 10:29:36;;;;;;;3.10;2.80;;;19.00;26.00;;;;;;4963721;28;20970;-84
2021/03/20 10:32:27;;;;;;;2.83;2.53;;;18.90;26.10;;;;;;4961265;28;20449;-85
2021/03/20 10:35:13;;;;;;;2.87;2.60;;;20.40;26.40;;;;;;4958282;28;20882;-86
2021/03/20 10:37:40;;;;;;;3.27;2.83;;;19.00;25.20;;;;;;4954766;28;20471;-85
2021/03/20 10:43:48;;;;;;;3.37;3.00;;;16.10;28.00;;;;;;4857038;29;20447;-85
2021/03/20 10:46:22;;;;;;;4.10;3.57;;;17.20;28.20;;;;;;4891518;29;20536;-86
2021/03/20 10:48:56;;;;;;;4.10;3.17;;;18.20;27.60;;;;;;4960161;28;20463;-86
2021/03/20 10:51:33;;;;;;;2.80;2.60;;;19.50;27.20;;;;;;4958566;28;20453;-85
2021/03/20 10:54:13;;;;;;;4.23;3.10;;;19.30;26.00;;;;;;4960503;28;20472;-86
2021/03/20 10:57:00;;;;;;;3.23;2.90;;;19.80;26.80;;;;;;4961610;28;21043;-85
2021/03/20 10:59:35;;;;;;;3.03;2.70;;;20.90;26.20;;;;;;4961541;28;20519;-85
2021/03/20 11:02:35;;;;;;;3.23;2.93;;;20.80;25.80;;;;;;4960742;28;20436;-85
2021/03/20 11:05:32;;;;;;;3.00;2.80;;;21.10;25.90;;;;;;4958895;28;20544;-84
2021/03/20 11:08:01;;;;;;;3.07;2.87;;;21.60;25.70;;;;;;4964704;28;20534;-82
2021/03/20 11:10:31;;;;;;;3.50;3.20;;;21.20;25.40;;;;;;4961827;28;20438;-83
2021/03/20 11:13:02;;;;;;;3.40;3.10;;;21.00;24.80;;;;;;4961251;28;20472;-85
2021/03/20 11:15:30;;;;;;;3.63;3.30;;;19.20;25.10;;;;;;4964375;28;20445;-84
2021/03/20 11:18:03;;;;;;;4.30;3.10;;;18.80;26.50;;;;;;4975234;28;20467;-84
2021/03/20 11:20:34;;;;;;;3.50;3.20;;;18.30;26.90;;;;;;4980136;28;20481;-87
2021/03/20 11:23:03;;;;;;;3.57;2.93;;;18.90;28.10;;;;;;4972344;28;20455;-84
2021/03/20 11:25:48;;;;;;;3.17;2.73;;;20.20;26.40;;;;;;4964296;28;20446;-84
2021/03/20 11:28:22;;;;;;;6.23;3.00;;;21.10;25.30;;;;;;4964688;28;20464;-83
2021/03/20 11:30:57;;;;;;;3.90;3.53;;;18.60;25.40;;;;;;4967825;28;20429;-82
2021/03/20 11:33:43;;;;;;;3.10;2.90;;;18.20;26.40;;;;;;4972943;28;20448;-83
2021/03/20 11:36:28;;;;;;;6.73;3.63;;;18.10;26.70;;;;;;4971383;28;20496;-84
2021/03/20 11:39:02;;;;;;;4.00;3.03;;;16.90;27.50;;;;;;4966569;28;20468;-84
2021/03/20 11:41:45;;;;;;;3.40;3.10;;;15.90;28.20;;;;;;4968275;28;20556;-84
2021/03/20 11:44:29;;;;;;;3.57;3.30;;;16.60;29.00;;;;;;4968514;29;20959;-84
2021/03/20 11:47:10;;;;;;;4.27;3.87;;;17.10;28.20;;;;;;4963158;28;20942;-84
2021/03/20 11:49:52;;;;;;;4.67;4.00;;;18.70;28.20;;;;;;4960661;28;20499;-85
2021/03/20 11:52:24;;;;;;;3.60;3.30;;;20.00;26.70;;;;;;4958397;28;20461;-84
2021/03/20 11:55:05;;;;;;;3.80;3.50;;;20.70;27.00;;;;;;4959777;28;20463;-84
2021/03/20 11:57:50;;;;;;;3.20;2.90;;;21.50;25.20;;;;;;4962766;28;20502;-84
2021/03/20 12:00:51;;;;;;;3.43;3.23;;;23.10;24.90;;;;;;4957261;28;20477;-83
2021/03/20 12:03:41;;;;;;;4.73;4.43;;;22.30;24.80;;;;;;4923702;28;20465;-84
2021/03/20 12:06:32;;;;;;;3.90;3.50;;;21.50;24.50;;;;;;4955045;28;20429;-83
2021/03/20 12:09:10;;;;;;;3.80;3.50;;;19.60;25.20;;;;;;4957535;28;20465;-84
2021/03/20 12:11:54;;;;;;;3.80;3.50;;;19.90;25.80;;;;;;4957585;28;20444;-84
2021/03/20 12:14:40;;;;;;;4.03;3.73;;;18.80;26.00;;;;;;4958123;28;20495;-85
2021/03/20 12:17:21;;;;;;;3.50;3.10;;;20.20;26.10;;;;;;4960949;28;20463;-87
2021/03/20 12:20:28;;;;;;;3.63;3.33;;;21.10;25.40;;;;;;4967112;28;20475;-85
2021/03/20 12:33:36;;;;;;;4.03;3.57;;;21.30;25.20;;;;;;4956321;28;20468;-85
2021/03/20 12:36:28;;;;;;;3.57;3.27;;;21.70;25.80;;;;;;4886319;29;20460;-86
2021/03/20 12:39:08;;;;;;;5.73;5.23;;;22.40;24.70;;;;;;4840618;29;20599;-85
2021/03/20 12:41:55;;;;;;;4.00;3.30;;;20.50;24.30;;;;;;4955034;28;20485;-86
2021/03/20 12:44:25;;;;;;;4.90;3.53;;;20.90;25.60;;;;;;4954647;28;20453;-84
2021/03/20 12:47:25;;;;;;;4.53;3.90;;;21.50;25.10;;;;;;4958971;28;20453;-86
2021/03/20 12:50:40;;;;;;;;;;;;;;;;;;;;;
2021/03/20 12:59:22;;;;;;;4.90;3.60;;;21.00;25.50;;;;;;4934147;28;20472;-84
2021/03/20 13:02:11;;;;;;;10.00;4.47;;;18.40;26.80;;;;;;4952772;28;20483;-85
2021/03/20 13:07:51;;;;;;;4.63;4.23;;;14.90;29.30;;;;;;4958180;28;20503;-85
2021/03/20 13:10:51;;;;;;;4.17;3.80;;;14.70;30.20;;;;;;4958148;28;20476;-84
2021/03/20 13:13:37;;;;;;;3.70;3.40;;;16.40;29.50;;;;;;4961031;28;20800;-85
2021/03/20 13:16:27;;;;;;;3.93;3.63;;;17.90;27.90;;;;;;4964478;28;20452;-85
2021/03/20 13:21:57;;;;;;;5.50;4.57;;;18.10;27.30;;;;;;4963704;28;20621;-87
2021/03/20 13:27:42;;;;;;;4.70;4.30;;;16.90;27.50;;;;;;4975552;28;20429;-86
2021/03/20 13:34:13;;;;;;;4.50;4.10;;;17.20;28.30;;;;;;4949133;28;21117;-86
2021/03/20 13:40:40;;;;;;;4.50;4.10;;;16.20;28.20;;;;;;4946701;28;21048;-85
2021/03/20 13:49:28;;;;;;;4.47;4.07;;;14.80;29.60;;;;;;4967652;28;20522;-88
2021/03/20 13:52:35;;;;;;;4.63;4.10;;;14.80;29.50;;;;;;4968207;28;20458;-87
2021/03/20 13:55:19;;;;;;;3.90;3.60;;;14.90;29.60;;;;;;4917891;29;20470;-88
2021/03/20 13:58:15;;;;;;;4.87;4.40;;;14.70;29.60;;;;;;4964813;28;20461;-87
2021/03/20 14:01:00;;;;;;;3.70;3.40;;;14.60;29.80;;;;;;4958103;29;20549;-89
2021/03/20 14:04:06;;;;;;;5.77;3.90;;;14.60;30.00;;;;;;4968125;28;20508;-87
2021/03/20 14:07:06;;;;;;;4.87;4.47;;;14.40;30.00;;;;;;4953090;28;20477;-90
2021/03/20 14:09:53;;;;;;;4.50;3.97;;;13.80;30.00;;;;;;4916084;29;20466;-89
2021/03/20 14:31:57;;;;;;;4.00;3.50;;;12.60;31.50;;;;;;4850711;29;20447;-86
2021/03/20 14:35:02;;;;;;;4.10;2.93;;;12.40;31.60;;;;;;4911926;29;20445;-87
2021/03/20 14:58:00;;;;;;;3.43;3.13;;;10.70;34.20;;;;;;4906403;29;20463;-85
2021/03/20 15:10:46;;;;;;;5.90;3.20;;;10.40;34.00;;;;;;4930137;29;20486;-85
2021/03/20 15:20:58;;;;;;;3.47;3.17;;;10.10;33.20;;;;;;4922750;29;20516;-85
2021/03/20 15:27:35;;;;;;;3.07;2.73;;;9.60;34.80;;;;;;4970345;28;20448;-85
2021/03/20 15:40:57;;;;;;;;;;;;;;;;;;;;;
2021/03/20 15:47:59;;;;;;;4.07;2.80;;;9.10;36.50;;;;;;4881446;29;20465;-85
2021/03/20 16:56:11;;;;;;;2.90;2.60;;;6.80;41.40;;;;;;4971359;28;20481;-85
2021/03/20 16:58:45;;;;;;;3.10;2.60;;;6.90;40.80;;;;;;4964596;28;20480;-86
2021/03/20 17:01:35;;;;;;;3.97;3.50;;;6.90;40.90;;;;;;4967709;28;20476;-85
2021/03/20 17:07:40;;;;;;;3.93;3.63;;;6.80;41.30;;;;;;4899898;29;20490;-86
2021/03/20 17:20:13;;;;;;;3.33;3.03;;;6.40;42.10;;;;;;4982973;23;20495;-85
2021/03/20 17:23:08;;;;;;;3.90;3.33;;;6.20;42.70;;;;;;4972475;28;20459;-85
2021/03/20 17:29:40;;;;;;;3.70;3.10;;;6.10;43.50;;;;;;4967278;28;20519;-85
2021/03/20 17:35:43;;;;;;;4.63;3.80;;;6.30;43.60;;;;;;4949234;28;20479;-87
2021/03/20 17:38:13;;;;;;;3.90;2.80;;;6.30;44.20;;;;;;4965819;28;20468;-85
2021/03/20 17:44:09;;;;;;;3.67;3.30;;;6.10;43.90;;;;;;4938675;28;20479;-84
2021/03/20 17:54:11;;;;;;;4.97;4.40;;;6.10;44.30;;;;;;4933517;29;20446;-85
2021/03/20 17:59:43;;;;;;;5.47;4.10;;;5.90;44.80;;;;;;5039560;23;20559;-85
2021/03/20 18:02:22;;;;;;;7.20;4.63;;;5.90;45.70;;;;;;4989823;28;20546;-85
2021/03/20 18:05:15;;;;;;;8.67;4.80;;;6.00;44.90;;;;;;4982518;28;20502;-84
2021/03/20 18:07:43;;;;;;;3.87;3.47;;;5.90;44.80;;;;;;4901940;29;20463;-88
2021/03/20 18:10:29;;;;;;;7.47;3.67;;;5.80;45.00;;;;;;4910133;28;20630;-86
2021/03/20 18:15:55;;;;;;;4.80;4.30;;;5.70;45.20;;;;;;4979790;28;20419;-85
2021/03/20 18:18:30;;;;;;;6.40;4.50;;;5.70;45.40;;;;;;4980440;28;20463;-86
2021/03/20 18:20:58;;;;;;;5.77;3.30;;;5.60;45.80;;;;;;4978506;28;20474;-86
2021/03/20 18:23:28;;;;;;;13.27;5.87;;;5.60;45.20;;;;;;4981263;28;20488;-86
2021/03/20 18:26:00;;;;;;;8.77;4.07;;;5.60;45.40;;;;;;4980675;28;20448;-85
2021/03/20 18:28:29;;;;;;;3.73;3.23;;;5.60;45.90;;;;;;4979828;28;20503;-86
2021/03/20 18:30:56;;;;;;;4.07;3.67;;;5.60;45.20;;;;;;4978427;28;20436;-85
2021/03/20 18:33:23;;;;;;;3.33;3.00;;;5.50;45.30;;;;;;4978815;28;20831;-85
2021/03/20 18:35:50;;;;;;;3.90;3.47;;;5.60;45.20;;;;;;4980209;28;20440;-86
2021/03/20 18:38:20;;;;;;;5.90;3.83;;;5.40;45.90;;;;;;4979145;28;21031;-85
2021/03/20 18:40:47;;;;;;;3.50;3.20;;;5.40;46.70;;;;;;4978486;28;20502;-86
2021/03/20 18:43:13;;;;;;;7.00;5.90;;;5.40;47.40;;;;;;4989949;28;20443;-86
2021/03/20 18:45:42;;;;;;;11.60;9.03;;;5.50;47.60;;;;;;4993032;28;20443;-86
2021/03/20 18:48:11;;;;;;;6.30;3.77;;;5.50;46.50;;;;;;4989018;28;20468;-86
2021/03/20 18:50:38;;;;;;;5.63;4.97;;;5.50;46.70;;;;;;4993317;28;20444;-85
2021/03/20 18:53:04;;;;;;;5.47;4.23;;;5.50;46.90;;;;;;4993850;28;20448;-85
2021/03/20 18:55:32;;;;;;;5.70;5.03;;;5.50;46.90;;;;;;4981524;28;20447;-86
2021/03/20 18:58:01;;;;;;;6.33;5.20;;;5.50;47.30;;;;;;5080422;23;20522;-87
2021/03/20 19:03:20;;;;;;;9.50;5.63;;;5.50;47.40;;;;;;4964585;28;20471;-88
2021/03/20 19:06:29;;;;;;;7.30;5.40;;;5.50;47.40;;;;;;4980241;28;20448;-89
2021/03/20 20:38:54;;;;;;;5.13;4.30;;;5.00;48.70;;;;;;4948717;23;20485;-88
2021/03/20 20:42:01;;;;;;;5.30;4.80;;;4.90;48.80;;;;;;4951011;29;20485;-87
2021/03/20 20:48:02;;;;;;;7.60;5.10;;;4.80;49.90;;;;;;4916525;29;20443;-87
2021/03/20 20:50:44;;;;;;;5.43;4.93;;;4.80;50.90;;;;;;4929024;29;20952;-87
2021/03/20 20:53:54;;;;;;;6.60;5.20;;;4.80;51.20;;;;;;4938384;29;20486;-87
2021/03/20 21:09:43;;;;;;;9.20;4.47;;;4.50;51.40;;;;;;4793624;29;20571;-84
2021/03/20 21:15:47;;;;;;;6.67;6.00;;;4.40;52.00;;;;;;4863362;29;20562;-87
2021/03/20 21:22:18;;;;;;;7.57;6.63;;;4.40;53.50;;;;;;4854134;29;20497;-87
2021/03/20 21:25:00;;;;;;;7.37;5.20;;;4.40;53.40;;;;;;4830791;29;20519;-86
2021/03/20 21:28:14;;;;;;;6.93;6.27;;;4.40;53.60;;;;;;4944660;29;20453;-87
2021/03/20 21:31:08;;;;;;;6.73;6.10;;;4.40;53.60;;;;;;4962645;29;20452;-88
2021/03/20 21:33:35;;;;;;;6.38;5.78;;;4.40;53.90;;;;;;4948897;29;20452;-88
2021/03/20 21:39:38;;;;;;;6.73;6.13;;;4.40;53.90;;;;;;4941829;29;20433;-87